Time;durP1;ratioP1;P1;durP2;ratioP2;P2;SDS_P1;SDS_P2;PMS_P1;PMS_P2;Temp;Humidity;BMP_temperature;BMP_pressure;BME280_temperature;BME280_humidity;BME280_pressure;Samples;Min_cycle;Max_cycle;Signal;HPM_P1;HPM_P2
2021/03/14 00:00:56;;;;;;;7.57;2.30;;;5.00;99.90;;;;;;6269685;22;20014;-74
2021/03/14 00:03:24;;;;;;;9.10;2.10;;;5.10;99.90;;;;;;6268366;22;20008;-77
2021/03/14 00:05:51;;;;;;;4.85;1.80;;;5.10;99.90;;;;;;6268184;22;19999;-75
2021/03/14 00:08:22;;;;;;;5.43;1.45;;;5.10;99.90;;;;;;6268223;22;20507;-75
2021/03/14 00:11:04;;;;;;;6.43;1.35;;;5.20;99.90;;;;;;6269075;22;20045;-75
2021/03/14 00:13:32;;;;;;;5.35;1.70;;;5.10;99.90;;;;;;6268347;22;20034;-74
2021/03/14 00:15:58;;;;;;;7.13;2.40;;;5.20;99.90;;;;;;6267694;22;20331;-74
2021/03/14 00:18:30;;;;;;;6.68;1.90;;;5.20;99.90;;;;;;6268775;22;20007;-74
2021/03/14 00:20:57;;;;;;;5.43;1.77;;;5.20;99.90;;;;;;6267870;22;20449;-75
2021/03/14 00:23:22;;;;;;;4.93;1.63;;;5.20;99.90;;;;;;6241432;22;20007;-74
2021/03/14 00:25:48;;;;;;;8.88;2.75;;;5.20;99.90;;;;;;6269273;22;20425;-74
2021/03/14 00:28:16;;;;;;;6.18;2.28;;;5.20;99.90;;;;;;6269847;22;20079;-74
2021/03/14 00:30:42;;;;;;;8.57;2.33;;;5.10;99.90;;;;;;6269077;22;20015;-77
2021/03/14 00:33:09;;;;;;;6.63;2.00;;;5.20;99.90;;;;;;6269466;22;20004;-75
2021/03/14 00:35:34;;;;;;;3.97;1.33;;;5.10;99.90;;;;;;6268685;22;20008;-75
2021/03/14 00:38:00;;;;;;;5.22;1.98;;;5.20;99.90;;;;;;6269419;22;20478;-75
2021/03/14 00:40:26;;;;;;;8.73;2.08;;;5.20;99.90;;;;;;6268440;22;20022;-73
2021/03/14 00:43:04;;;;;;;5.60;1.80;;;5.20;99.90;;;;;;6242682;22;20011;-73
2021/03/14 00:45:32;;;;;;;7.05;1.85;;;5.10;99.90;;;;;;6268430;22;20511;-77
2021/03/14 00:48:01;;;;;;;4.85;1.33;;;5.10;99.90;;;;;;6267179;22;19999;-78
2021/03/14 00:50:27;;;;;;;6.28;2.10;;;5.10;99.90;;;;;;6268510;22;20004;-74
2021/03/14 00:52:53;;;;;;;6.68;2.08;;;5.10;99.90;;;;;;6270007;22;20003;-73
2021/03/14 00:55:19;;;;;;;9.23;2.78;;;5.00;99.90;;;;;;6268811;22;20091;-75
2021/03/14 00:57:44;;;;;;;6.50;2.17;;;5.00;99.90;;;;;;6267310;22;20024;-78
2021/03/14 01:00:10;;;;;;;7.10;2.03;;;4.90;99.90;;;;;;6269151;22;20012;-77
2021/03/14 01:02:36;;;;;;;9.02;1.88;;;4.80;99.90;;;;;;6268425;22;20008;-76
2021/03/14 01:05:02;;;;;;;8.13;2.03;;;4.90;99.90;;;;;;6268660;22;20004;-76
2021/03/14 01:07:28;;;;;;;7.00;1.83;;;4.90;99.90;;;;;;6268097;22;20030;-76
2021/03/14 01:09:54;;;;;;;6.97;2.10;;;4.90;99.90;;;;;;6269445;22;20011;-74
2021/03/14 01:12:19;;;;;;;5.43;1.33;;;4.80;99.90;;;;;;6269627;22;20008;-77
2021/03/14 01:14:45;;;;;;;6.90;2.08;;;4.80;99.90;;;;;;6269383;22;20063;-75
2021/03/14 01:17:10;;;;;;;7.00;1.73;;;4.80;99.90;;;;;;6268617;22;20023;-76
2021/03/14 01:19:36;;;;;;;11.27;2.45;;;4.80;99.90;;;;;;6267655;22;20008;-76
2021/03/14 01:22:02;;;;;;;5.72;2.08;;;4.80;99.90;;;;;;6269526;22;20004;-73
2021/03/14 01:24:28;;;;;;;4.10;1.73;;;4.70;99.90;;;;;;6268774;22;20024;-77
2021/03/14 01:26:53;;;;;;;12.75;2.15;;;4.70;99.90;;;;;;6268983;22;20043;-79
2021/03/14 01:29:19;;;;;;;8.18;2.45;;;4.70;99.90;;;;;;6268719;22;20020;-75
2021/03/14 01:31:45;;;;;;;9.73;2.65;;;4.70;99.90;;;;;;6267967;22;20351;-76
2021/03/14 01:34:10;;;;;;;9.23;2.72;;;4.70;99.90;;;;;;6268587;22;20015;-76
2021/03/14 01:36:36;;;;;;;9.32;2.97;;;4.80;99.90;;;;;;6268399;22;20004;-75
2021/03/14 01:39:02;;;;;;;5.60;1.85;;;4.70;99.90;;;;;;6267935;22;20004;-76
2021/03/14 01:41:28;;;;;;;12.77;3.25;;;4.70;99.90;;;;;;6267761;22;20004;-76
2021/03/14 01:43:53;;;;;;;7.60;2.13;;;4.70;99.90;;;;;;6269824;22;20015;-76
2021/03/14 01:46:19;;;;;;;8.98;2.78;;;4.70;99.90;;;;;;6271661;22;20015;-77
2021/03/14 01:48:45;;;;;;;8.70;2.83;;;4.60;99.90;;;;;;6269512;22;20003;-77
2021/03/14 01:51:11;;;;;;;9.65;2.90;;;4.60;99.90;;;;;;6272389;22;20034;-74
2021/03/14 01:53:36;;;;;;;9.18;2.40;;;4.60;99.90;;;;;;6245017;22;20339;-76
2021/03/14 01:56:03;;;;;;;8.40;2.45;;;4.60;99.90;;;;;;6244263;22;20019;-77
2021/03/14 01:58:30;;;;;;;5.97;2.13;;;4.60;99.90;;;;;;6272292;22;20019;-77
2021/03/14 02:00:56;;;;;;;9.15;2.75;;;4.70;99.90;;;;;;6272408;22;20099;-76
2021/03/14 02:03:23;;;;;;;5.45;1.88;;;4.70;99.90;;;;;;6272965;22;20062;-74
2021/03/14 02:05:50;;;;;;;9.90;2.30;;;4.70;99.90;;;;;;6271911;22;20458;-75
2021/03/14 02:08:17;;;;;;;10.60;3.15;;;4.70;99.90;;;;;;6272344;22;20486;-76
2021/03/14 02:10:43;;;;;;;5.88;2.30;;;4.70;99.90;;;;;;6272431;22;20652;-76
2021/03/14 02:13:24;;;;;;;7.97;2.78;;;4.80;99.90;;;;;;6272365;22;20014;-74
2021/03/14 02:16:10;;;;;;;10.23;3.50;;;4.80;99.90;;;;;;6271133;22;20007;-73
2021/03/14 02:18:40;;;;;;;7.18;2.45;;;4.80;99.90;;;;;;6272157;22;20023;-76
2021/03/14 02:21:06;;;;;;;12.55;2.67;;;4.80;99.90;;;;;;6271960;22;20086;-78
2021/03/14 02:23:57;;;;;;;9.15;2.60;;;4.80;99.90;;;;;;6271965;22;19999;-75
2021/03/14 02:26:28;;;;;;;8.90;2.90;;;4.80;99.90;;;;;;6272604;22;20012;-75
2021/03/14 02:28:55;;;;;;;7.28;1.98;;;4.80;99.90;;;;;;6271804;22;20099;-76
2021/03/14 02:31:25;;;;;;;7.10;2.35;;;4.80;99.90;;;;;;6272297;22;20015;-77
2021/03/14 02:33:55;;;;;;;8.07;2.30;;;4.80;99.90;;;;;;6272681;22;20007;-75
2021/03/14 02:36:23;;;;;;;4.18;1.85;;;4.80;99.90;;;;;;6272274;22;20007;-75
2021/03/14 02:38:50;;;;;;;9.88;2.83;;;4.80;99.90;;;;;;6272425;22;20519;-76
2021/03/14 02:41:16;;;;;;;9.10;2.95;;;4.80;99.90;;;;;;6272052;22;20027;-77
2021/03/14 02:43:43;;;;;;;11.18;2.67;;;4.90;99.90;;;;;;6244069;22;20003;-75
2021/03/14 02:46:09;;;;;;;11.88;2.88;;;4.80;99.90;;;;;;6272751;22;20505;-75
2021/03/14 02:48:37;;;;;;;10.98;3.13;;;4.60;99.90;;;;;;6269445;22;20215;-77
2021/03/14 02:51:03;;;;;;;7.45;2.30;;;4.50;99.90;;;;;;6272575;22;20328;-77
2021/03/14 02:53:30;;;;;;;8.07;2.63;;;4.60;99.90;;;;;;6271628;22;20027;-74
2021/03/14 02:55:57;;;;;;;16.38;3.38;;;4.60;99.90;;;;;;6242916;22;20424;-76
2021/03/14 02:58:24;;;;;;;12.88;4.88;;;4.50;99.90;;;;;;6271220;22;20018;-76
2021/03/14 03:00:51;;;;;;;11.43;4.13;;;4.20;99.90;;;;;;6243407;22;20031;-77
2021/03/14 03:03:21;;;;;;;8.35;2.88;;;4.00;99.90;;;;;;6270916;22;20004;-81
2021/03/14 03:05:48;;;;;;;5.57;2.25;;;4.00;99.90;;;;;;6269518;22;20004;-78
2021/03/14 03:08:17;;;;;;;12.15;2.92;;;4.00;99.90;;;;;;6269862;22;20014;-79
2021/03/14 03:10:45;;;;;;;11.85;3.78;;;4.10;99.90;;;;;;6270306;22;20004;-80
2021/03/14 03:13:12;;;;;;;8.30;3.15;;;4.10;99.90;;;;;;6270383;22;20015;-77
2021/03/14 03:15:39;;;;;;;13.38;3.92;;;4.20;99.90;;;;;;6269991;22;20061;-79
2021/03/14 03:18:05;;;;;;;14.70;4.38;;;4.10;99.90;;;;;;6270167;22;20016;-80
2021/03/14 03:20:33;;;;;;;14.55;4.43;;;4.20;99.90;;;;;;6269292;22;20031;-76
2021/03/14 03:22:59;;;;;;;15.35;5.53;;;4.10;99.90;;;;;;6269523;22;20489;-79
2021/03/14 03:25:25;;;;;;;10.82;2.80;;;4.20;99.90;;;;;;6269728;22;20035;-80
2021/03/14 03:27:52;;;;;;;12.82;5.80;;;4.20;99.90;;;;;;6270123;22;20391;-77
2021/03/14 03:30:19;;;;;;;13.73;4.32;;;4.20;99.90;;;;;;6270045;22;20024;-77
2021/03/14 03:32:46;;;;;;;16.70;4.68;;;4.30;99.90;;;;;;6269275;22;20007;-78
2021/03/14 03:35:15;;;;;;;12.40;4.32;;;4.20;99.90;;;;;;6270593;22;20007;-80
2021/03/14 03:37:41;;;;;;;10.82;4.25;;;4.20;99.90;;;;;;6270167;22;20011;-78
2021/03/14 03:40:11;;;;;;;15.57;5.45;;;4.30;99.90;;;;;;6268995;22;20478;-79
2021/03/14 03:42:47;;;;;;;12.35;4.55;;;4.30;99.90;;;;;;6267240;22;20008;-77
2021/03/14 03:45:14;;;;;;;15.50;4.90;;;4.20;99.90;;;;;;6269749;22;20046;-76
2021/03/14 03:47:44;;;;;;;18.30;5.88;;;4.20;99.90;;;;;;6266514;22;20335;-76
2021/03/14 03:50:14;;;;;;;11.90;4.75;;;4.30;99.90;;;;;;6269821;22;20039;-77
2021/03/14 03:52:42;;;;;;;14.80;4.85;;;4.30;99.90;;;;;;6269067;22;20007;-76
2021/03/14 03:55:09;;;;;;;13.32;5.03;;;4.30;99.90;;;;;;6243020;22;20054;-77
2021/03/14 03:57:38;;;;;;;12.45;5.05;;;4.30;99.90;;;;;;6268314;22;20051;-78
2021/03/14 04:00:06;;;;;;;8.93;3.30;;;4.20;99.90;;;;;;6269091;22;20035;-76
2021/03/14 04:02:32;;;;;;;15.68;6.55;;;4.30;99.90;;;;;;6271168;22;20435;-77
2021/03/14 04:04:59;;;;;;;10.68;3.47;;;4.30;99.90;;;;;;6245479;22;20332;-78
2021/03/14 04:07:26;;;;;;;14.88;4.30;;;4.30;99.90;;;;;;6272081;22;20260;-76
2021/03/14 04:09:52;;;;;;;15.30;5.90;;;4.30;99.90;;;;;;6273030;22;19999;-78
2021/03/14 04:12:18;;;;;;;15.55;6.75;;;4.30;99.90;;;;;;6273266;22;20113;-80
2021/03/14 04:14:45;;;;;;;19.65;5.32;;;4.30;99.90;;;;;;6273062;22;20341;-76
2021/03/14 04:17:11;;;;;;;14.57;4.25;;;4.30;99.90;;;;;;6272996;22;20020;-76
2021/03/14 04:19:39;;;;;;;13.65;6.15;;;4.40;99.90;;;;;;6271343;22;20365;-78
2021/03/14 04:22:07;;;;;;;12.90;5.35;;;4.40;99.90;;;;;;6273244;22;20083;-80
2021/03/14 04:24:33;;;;;;;17.75;7.05;;;4.40;99.90;;;;;;6272699;22;20003;-76
2021/03/14 04:27:01;;;;;;;22.48;8.60;;;4.30;99.90;;;;;;6273196;22;20007;-76
2021/03/14 04:29:29;;;;;;;14.55;6.68;;;4.40;99.90;;;;;;6271629;22;20092;-76
2021/03/14 04:31:56;;;;;;;14.63;6.43;;;4.40;99.90;;;;;;6273490;22;20078;-76
2021/03/14 04:34:25;;;;;;;17.05;6.93;;;4.30;99.90;;;;;;6273283;22;19996;-76
2021/03/14 04:36:52;;;;;;;16.65;6.60;;;4.20;99.90;;;;;;6245076;22;20012;-76
2021/03/14 04:39:19;;;;;;;11.45;4.55;;;4.20;99.90;;;;;;6272141;22;20198;-79
2021/03/14 04:41:46;;;;;;;15.15;5.53;;;4.10;99.90;;;;;;6271645;22;20097;-75
2021/03/14 04:44:12;;;;;;;14.15;5.60;;;4.20;99.90;;;;;;6272558;22;20452;-75
2021/03/14 04:46:38;;;;;;;14.60;4.80;;;4.20;99.90;;;;;;6269647;22;20007;-76
2021/03/14 04:49:04;;;;;;;10.63;4.28;;;4.20;99.90;;;;;;6272724;22;20007;-75
2021/03/14 04:51:32;;;;;;;15.68;6.50;;;4.30;99.90;;;;;;6271994;22;20401;-74
2021/03/14 04:53:58;;;;;;;15.07;4.45;;;4.30;99.90;;;;;;6272426;22;20004;-76
2021/03/14 04:56:26;;;;;;;6.22;2.70;;;4.40;99.90;;;;;;6272906;22;20004;-74
2021/03/14 04:58:55;;;;;;;12.88;3.50;;;4.30;99.90;;;;;;6270199;22;20037;-76
2021/03/14 05:01:22;;;;;;;10.32;3.72;;;4.30;99.90;;;;;;6272516;22;20305;-76
2021/03/14 05:03:52;;;;;;;13.55;4.00;;;4.30;99.90;;;;;;6271089;22;20075;-75
2021/03/14 05:06:19;;;;;;;14.45;3.45;;;4.20;99.90;;;;;;6273003;22;19999;-74
2021/03/14 05:08:47;;;;;;;7.93;3.25;;;4.30;99.90;;;;;;6272478;22;20003;-74
2021/03/14 05:11:20;;;;;;;10.73;3.58;;;4.30;99.90;;;;;;6272839;22;19999;-74
2021/03/14 05:13:47;;;;;;;9.57;3.70;;;4.30;99.90;;;;;;6271414;22;20075;-75
2021/03/14 05:16:14;;;;;;;12.63;4.38;;;4.20;99.90;;;;;;6272295;22;20035;-74
2021/03/14 05:18:42;;;;;;;16.65;4.95;;;4.30;99.90;;;;;;6271718;22;20669;-74
2021/03/14 05:21:08;;;;;;;16.42;3.78;;;4.30;99.90;;;;;;6272369;22;20026;-74
2021/03/14 05:23:35;;;;;;;11.02;3.55;;;4.30;99.90;;;;;;6271722;22;20074;-74
2021/03/14 05:26:01;;;;;;;11.43;4.32;;;4.30;99.90;;;;;;6272446;22;20030;-74
2021/03/14 05:28:28;;;;;;;9.35;3.40;;;4.30;99.90;;;;;;6272429;22;20351;-74
2021/03/14 05:30:54;;;;;;;15.32;4.28;;;4.30;99.90;;;;;;6270998;22;20502;-75
2021/03/14 05:33:19;;;;;;;14.65;4.43;;;4.30;99.90;;;;;;6246289;22;20012;-74
2021/03/14 05:35:45;;;;;;;7.28;2.40;;;4.20;99.90;;;;;;6271296;22;20080;-71
2021/03/14 05:38:11;;;;;;;9.82;3.50;;;4.20;99.90;;;;;;6273165;22;20023;-74
2021/03/14 05:40:37;;;;;;;15.50;4.07;;;4.30;99.90;;;;;;6271361;22;19995;-74
2021/03/14 05:43:04;;;;;;;18.77;5.35;;;4.20;99.90;;;;;;6273226;22;20015;-74
2021/03/14 05:45:32;;;;;;;10.25;3.13;;;4.30;99.90;;;;;;6244116;22;20053;-73
2021/03/14 05:47:58;;;;;;;18.48;5.38;;;4.30;99.90;;;;;;6272926;22;20011;-74
2021/03/14 05:50:27;;;;;;;13.20;4.53;;;4.40;99.90;;;;;;6272707;22;20004;-74
2021/03/14 05:52:53;;;;;;;14.53;3.53;;;4.30;99.90;;;;;;6272214;22;20000;-74
2021/03/14 05:55:22;;;;;;;10.88;3.55;;;4.20;99.90;;;;;;6272472;22;20075;-72
2021/03/14 05:57:54;;;;;;;11.23;3.67;;;4.20;99.90;;;;;;6272275;22;20065;-75
2021/03/14 06:00:28;;;;;;;10.18;4.68;;;4.30;99.90;;;;;;6244639;22;20007;-78
2021/03/14 06:02:59;;;;;;;13.98;4.75;;;4.30;99.90;;;;;;6271836;22;20459;-74
2021/03/14 06:05:30;;;;;;;14.50;4.90;;;4.30;99.90;;;;;;6272835;22;20067;-74
2021/03/14 06:07:57;;;;;;;8.63;3.65;;;4.30;99.90;;;;;;6272350;22;20224;-74
2021/03/14 06:10:23;;;;;;;13.32;5.15;;;4.40;99.90;;;;;;6272354;22;20000;-74
2021/03/14 06:12:49;;;;;;;8.50;3.22;;;4.40;99.90;;;;;;6272316;22;20004;-75
2021/03/14 06:15:15;;;;;;;17.67;5.28;;;4.40;99.90;;;;;;6271653;22;20000;-74
2021/03/14 06:17:41;;;;;;;16.38;6.38;;;4.40;99.90;;;;;;6271675;22;20062;-74
2021/03/14 06:20:09;;;;;;;14.82;3.85;;;4.30;99.90;;;;;;6244649;22;20003;-74
2021/03/14 06:22:35;;;;;;;18.25;5.88;;;4.40;99.90;;;;;;6272009;22;20352;-74
2021/03/14 06:25:01;;;;;;;17.40;6.30;;;4.40;99.90;;;;;;6272981;22;20026;-74
2021/03/14 06:27:31;;;;;;;20.83;7.03;;;4.40;99.90;;;;;;6272689;22;20362;-74
2021/03/14 06:29:57;;;;;;;;;;;4.40;99.90;;;;;;6218188;22;20048;-74
2021/03/14 06:32:22;;;;;;;20.73;6.32;;;4.40;99.90;;;;;;6274452;22;19957;-71
2021/03/14 06:34:48;;;;;;;14.02;4.70;;;4.40;99.90;;;;;;6273620;22;20000;-74
2021/03/14 06:37:15;;;;;;;16.55;6.72;;;4.50;99.90;;;;;;6246700;22;20149;-74
2021/03/14 06:39:47;;;;;;;19.85;6.43;;;4.60;99.90;;;;;;6273819;22;20420;-75
2021/03/14 06:42:32;;;;;;;18.15;5.80;;;4.50;99.90;;;;;;6274457;22;20004;-74
2021/03/14 06:45:10;;;;;;;12.50;5.13;;;4.60;99.90;;;;;;6270359;22;20090;-73
2021/03/14 06:47:40;;;;;;;20.10;6.82;;;4.60;99.90;;;;;;6272358;22;20004;-72
2021/03/14 06:50:08;;;;;;;17.70;6.40;;;4.60;99.90;;;;;;6273735;22;20320;-73
2021/03/14 06:52:34;;;;;;;27.00;11.60;;;4.60;99.90;;;;;;6274091;22;20004;-73
2021/03/14 06:54:59;;;;;;;15.05;5.93;;;4.60;99.90;;;;;;6220847;22;20084;-72
2021/03/14 06:57:25;;;;;;;19.17;7.35;;;4.60;99.90;;;;;;6274063;22;20552;-72
2021/03/14 06:59:58;;;;;;;15.93;6.60;;;4.70;99.90;;;;;;6272146;22;20086;-73
2021/03/14 07:02:31;;;;;;;22.75;8.93;;;4.70;99.90;;;;;;6273605;22;20067;-72
2021/03/14 07:04:58;;;;;;;18.88;7.60;;;4.70;99.90;;;;;;6273704;22;19999;-72
2021/03/14 07:07:29;;;;;;;19.45;6.70;;;4.70;99.90;;;;;;6273454;22;20015;-73
2021/03/14 07:10:11;;;;;;;22.55;10.70;;;4.90;99.90;;;;;;6274265;22;20253;-73
2021/03/14 07:12:38;;;;;;;23.00;7.45;;;4.90;99.90;;;;;;6270251;22;20004;-73
2021/03/14 07:15:13;;;;;;;15.23;6.10;;;4.90;99.90;;;;;;6272661;22;20022;-73
2021/03/14 07:17:49;;;;;;;17.85;6.18;;;5.00;99.90;;;;;;6272655;22;20309;-73
2021/03/14 07:20:19;;;;;;;18.02;8.23;;;5.00;99.90;;;;;;6246046;22;20091;-73
2021/03/14 07:23:07;;;;;;;21.98;8.63;;;5.00;99.90;;;;;;6271556;22;20019;-73
2021/03/14 07:25:39;;;;;;;13.68;6.38;;;5.00;99.90;;;;;;6272281;22;20127;-72
2021/03/14 07:28:06;;;;;;;16.88;6.85;;;5.00;99.90;;;;;;6271482;22;20012;-73
2021/03/14 07:30:31;;;;;;;12.95;4.85;;;5.10;99.90;;;;;;6272065;22;20061;-72
2021/03/14 07:32:57;;;;;;;18.70;7.57;;;5.00;99.90;;;;;;6271714;22;20004;-73
2021/03/14 07:35:24;;;;;;;14.23;7.05;;;5.00;99.90;;;;;;6271877;22;20004;-72
2021/03/14 07:37:51;;;;;;;24.52;12.98;;;5.10;99.90;;;;;;6272493;22;20081;-71
2021/03/14 07:40:20;;;;;;;22.40;10.23;;;5.10;99.90;;;;;;6271515;22;20004;-71
2021/03/14 07:42:46;;;;;;;19.48;8.57;;;5.10;99.90;;;;;;6272753;22;20454;-71
2021/03/14 07:45:14;;;;;;;22.40;9.02;;;5.10;99.90;;;;;;6271328;22;20030;-72
2021/03/14 07:47:41;;;;;;;17.40;6.65;;;5.10;99.90;;;;;;6272171;22;20446;-73
2021/03/14 07:50:12;;;;;;;18.80;6.82;;;5.10;99.90;;;;;;6270456;22;20015;-71
2021/03/14 07:52:40;;;;;;;18.13;6.78;;;5.10;99.90;;;;;;6270606;22;20061;-71
2021/03/14 07:55:14;;;;;;;22.45;8.75;;;5.10;99.90;;;;;;6272235;22;20004;-71
2021/03/14 07:57:44;;;;;;;23.00;8.15;;;5.10;99.90;;;;;;6272015;22;20497;-74
2021/03/14 08:00:39;;;;;;;25.02;11.10;;;5.00;99.90;;;;;;6272391;22;20050;-73
2021/03/14 08:03:08;;;;;;;21.42;9.65;;;5.10;99.90;;;;;;6270391;22;20004;-75
2021/03/14 08:05:40;;;;;;;14.32;6.80;;;5.10;99.90;;;;;;6272847;22;20024;-72
2021/03/14 08:08:26;;;;;;;23.08;9.45;;;5.20;99.90;;;;;;6273612;22;20031;-72
2021/03/14 08:10:53;;;;;;;25.75;8.98;;;5.20;99.90;;;;;;6266006;22;20023;-71
2021/03/14 08:13:27;;;;;;;21.33;8.90;;;5.10;99.90;;;;;;6273394;22;20003;-74
2021/03/14 08:16:04;;;;;;;21.77;10.63;;;5.10;99.90;;;;;;6271945;22;20718;-73
2021/03/14 08:18:41;;;;;;;27.60;11.18;;;5.00;99.90;;;;;;6273540;22;20325;-74
2021/03/14 08:21:27;;;;;;;21.10;7.80;;;4.90;99.90;;;;;;6270797;22;20004;-72
2021/03/14 08:23:54;;;;;;;21.50;9.52;;;4.90;99.90;;;;;;6272174;22;20010;-73
2021/03/14 08:26:29;;;;;;;26.38;14.82;;;5.00;99.90;;;;;;6245521;22;20094;-74
2021/03/14 08:29:00;;;;;;;23.45;10.02;;;4.80;99.90;;;;;;6272188;22;20027;-73
2021/03/14 08:31:53;;;;;;;17.40;8.70;;;4.80;99.90;;;;;;6272395;22;20008;-75
2021/03/14 08:34:32;;;;;;;19.35;7.55;;;4.80;99.90;;;;;;6271023;22;20019;-73
2021/03/14 08:36:58;;;;;;;21.00;8.18;;;4.90;99.90;;;;;;6244134;22;20015;-73
2021/03/14 08:39:36;;;;;;;23.60;11.13;;;4.70;99.90;;;;;;6271760;22;20018;-77
2021/03/14 08:42:03;;;;;;;14.52;6.22;;;4.50;99.90;;;;;;6272015;22;20023;-75
2021/03/14 08:44:40;;;;;;;26.77;13.85;;;4.40;99.90;;;;;;6246269;22;20046;-75
2021/03/14 08:47:13;;;;;;;22.77;9.73;;;4.50;99.90;;;;;;6272111;22;19999;-75
2021/03/14 08:49:41;;;;;;;29.58;9.75;;;4.40;99.90;;;;;;6272697;22;20420;-76
2021/03/14 08:52:08;;;;;;;29.23;18.95;;;4.50;99.90;;;;;;6271840;22;20554;-79
2021/03/14 08:54:42;;;;;;;25.15;10.52;;;4.30;99.90;;;;;;6272370;22;20000;-75
2021/03/14 08:57:13;;;;;;;19.20;8.57;;;4.20;99.90;;;;;;6271701;22;20038;-79
2021/03/14 08:59:57;;;;;;;12.93;6.13;;;4.10;99.90;;;;;;6270705;22;20007;-76
2021/03/14 09:02:32;;;;;;;15.85;7.22;;;3.70;99.90;;;;;;6271347;22;20477;-75
2021/03/14 09:05:12;;;;;;;15.57;5.90;;;3.50;99.90;;;;;;6271289;22;20027;-79
2021/03/14 09:07:38;;;;;;;10.17;3.43;;;3.40;99.90;;;;;;6271455;22;20014;-76
2021/03/14 09:10:15;;;;;;;13.40;5.82;;;3.30;99.90;;;;;;6245079;22;20000;-76
2021/03/14 09:12:41;;;;;;;10.02;3.97;;;3.50;99.90;;;;;;6272351;22;20003;-79
2021/03/14 09:15:12;;;;;;;17.17;5.32;;;3.40;99.90;;;;;;6271343;22;20042;-75
2021/03/14 09:17:42;;;;;;;;;;;3.50;99.90;;;;;;6271674;22;20012;-78
2021/03/14 09:20:09;;;;;;;11.25;5.07;;;3.50;99.90;;;;;;6243661;22;20328;-77
2021/03/14 09:22:39;;;;;;;13.70;5.63;;;3.60;99.90;;;;;;6272242;22;20004;-76
2021/03/14 09:25:09;;;;;;;14.35;5.63;;;3.60;99.90;;;;;;6272220;22;20014;-80
2021/03/14 09:27:36;;;;;;;;;;;3.80;99.90;;;;;;6243219;22;20508;-76
2021/03/14 09:30:09;;;;;;;12.40;5.63;;;4.00;99.90;;;;;;6270204;22;19919;-79
2021/03/14 09:32:36;;;;;;;11.50;5.78;;;4.10;99.90;;;;;;6272206;22;20008;-76
2021/03/14 09:35:18;;;;;;;14.52;6.50;;;4.10;99.90;;;;;;6270791;22;20004;-76
2021/03/14 09:37:58;;;;;;;14.30;5.78;;;4.20;99.90;;;;;;6268206;22;20007;-75
2021/03/14 09:40:28;;;;;;;17.13;7.40;;;4.60;99.90;;;;;;6268873;22;20027;-79
2021/03/14 09:43:15;;;;;;;13.30;6.55;;;4.50;99.90;;;;;;6269529;22;20022;-76
2021/03/14 09:45:51;;;;;;;18.33;7.88;;;4.80;99.90;;;;;;6264996;22;20011;-79
2021/03/14 09:48:24;;;;;;;16.92;7.50;;;4.80;99.90;;;;;;6268146;22;20420;-76
2021/03/14 09:50:52;;;;;;;16.33;7.47;;;4.80;99.90;;;;;;6268912;22;20000;-75
2021/03/14 09:53:19;;;;;;;22.63;9.18;;;4.90;99.90;;;;;;6268105;22;20091;-74
2021/03/14 09:55:48;;;;;;;25.02;13.50;;;4.90;99.90;;;;;;6268304;22;20015;-74
2021/03/14 09:58:19;;;;;;;23.42;9.70;;;4.90;99.90;;;;;;6268058;22;20046;-74
2021/03/14 10:00:46;;;;;;;20.05;8.52;;;4.80;99.90;;;;;;6269674;22;20011;-75
2021/03/14 10:03:18;;;;;;;22.05;9.93;;;4.90;99.90;;;;;;6269590;22;20026;-75
2021/03/14 10:05:49;;;;;;;19.85;9.43;;;5.00;99.90;;;;;;6271188;22;20324;-75
2021/03/14 10:08:36;;;;;;;26.30;11.45;;;5.00;99.90;;;;;;6272046;22;20022;-74
2021/03/14 10:11:12;;;;;;;24.27;9.90;;;5.10;99.90;;;;;;6270531;22;20067;-75
2021/03/14 10:13:40;;;;;;;18.15;7.38;;;5.20;99.90;;;;;;6271373;22;20026;-75
2021/03/14 10:16:12;;;;;;;17.33;7.40;;;5.10;99.90;;;;;;6243472;22;20091;-75
2021/03/14 10:18:39;;;;;;;18.13;7.78;;;5.20;99.90;;;;;;6267477;22;20432;-75
2021/03/14 10:21:22;;;;;;;13.35;5.43;;;5.40;99.90;;;;;;6269973;22;20087;-75
2021/03/14 10:23:49;;;;;;;19.70;8.68;;;5.40;99.90;;;;;;6271022;22;20119;-72
2021/03/14 10:26:16;;;;;;;21.15;8.90;;;5.40;99.90;;;;;;6271929;22;20034;-75
2021/03/14 10:28:45;;;;;;;19.73;8.82;;;5.30;99.90;;;;;;6270473;22;20000;-74
2021/03/14 10:31:12;;;;;;;20.65;8.57;;;5.40;99.90;;;;;;6270837;22;20466;-75
2021/03/14 10:33:41;;;;;;;22.50;9.70;;;5.60;99.90;;;;;;6270586;22;20008;-75
2021/03/14 10:36:12;;;;;;;27.03;10.60;;;5.50;99.90;;;;;;6270237;22;20003;-76
2021/03/14 10:38:49;;;;;;;20.38;6.60;;;5.50;99.90;;;;;;6270879;22;20232;-75
2021/03/14 10:41:17;;;;;;;21.50;10.98;;;6.10;99.90;;;;;;6270896;22;20058;-74
2021/03/14 10:43:54;;;;;;;16.83;6.75;;;6.00;99.90;;;;;;6270506;22;20023;-73
2021/03/14 10:46:43;;;;;;;17.65;8.20;;;5.90;99.90;;;;;;6269767;22;20035;-75
2021/03/14 10:49:13;;;;;;;21.45;9.65;;;5.80;99.90;;;;;;6269987;22;20092;-73
2021/03/14 10:51:40;;;;;;;18.60;8.00;;;5.90;99.90;;;;;;6269786;22;20002;-72
2021/03/14 10:54:10;;;;;;;16.60;7.90;;;6.20;99.90;;;;;;6269717;22;20030;-73
2021/03/14 10:56:40;;;;;;;;;;;6.20;99.90;;;;;;6270736;22;20007;-73
2021/03/14 10:59:21;;;;;;;17.02;7.90;;;6.30;99.90;;;;;;6267795;22;19911;-73
2021/03/14 11:01:47;;;;;;;19.70;7.90;;;6.40;99.90;;;;;;6269247;22;20007;-73
2021/03/14 11:04:13;;;;;;;21.92;9.77;;;6.20;99.90;;;;;;6242931;22;20014;-73
2021/03/14 11:06:39;;;;;;;15.15;6.22;;;6.20;99.90;;;;;;6270997;22;20000;-73
2021/03/14 11:09:08;;;;;;;17.38;6.57;;;6.00;99.90;;;;;;6269362;22;20399;-73
2021/03/14 11:11:41;;;;;;;22.73;8.73;;;6.00;99.90;;;;;;6271147;22;20357;-73
2021/03/14 11:14:26;;;;;;;18.45;8.23;;;6.20;99.90;;;;;;6268567;22;20004;-73
2021/03/14 11:17:11;;;;;;;18.42;8.93;;;6.40;99.90;;;;;;6267613;22;20110;-70
2021/03/14 11:19:48;;;;;;;12.07;4.68;;;6.70;99.90;;;;;;6243091;22;20011;-73
2021/03/14 11:22:15;;;;;;;22.35;9.90;;;6.60;99.90;;;;;;6268044;22;20014;-72
2021/03/14 11:24:41;;;;;;;24.88;10.75;;;6.60;99.90;;;;;;6270271;22;20470;-73
2021/03/14 11:27:07;;;;;;;27.15;10.52;;;6.50;99.90;;;;;;6269424;22;19999;-73
2021/03/14 11:29:33;;;;;;;20.25;10.02;;;6.40;99.90;;;;;;6270284;22;20015;-73
2021/03/14 11:31:59;;;;;;;24.08;10.85;;;6.40;99.90;;;;;;6268874;22;20081;-73
2021/03/14 11:34:25;;;;;;;23.40;13.23;;;6.60;99.90;;;;;;6271002;22;20004;-73
2021/03/14 11:36:50;;;;;;;23.25;11.45;;;6.60;99.90;;;;;;6269855;22;20011;-72
2021/03/14 11:39:16;;;;;;;24.13;10.60;;;6.40;99.90;;;;;;6270914;22;20003;-73
2021/03/14 11:41:43;;;;;;;27.27;11.60;;;6.60;99.90;;;;;;6270414;22;20022;-72
2021/03/14 11:44:09;;;;;;;23.70;10.35;;;6.70;99.90;;;;;;6270102;22;20000;-73
2021/03/14 11:46:35;;;;;;;24.05;9.00;;;6.50;99.90;;;;;;6270669;22;19995;-74
2021/03/14 11:49:01;;;;;;;20.95;9.68;;;6.40;99.90;;;;;;6269366;22;20011;-74
2021/03/14 11:51:27;;;;;;;20.05;8.98;;;6.50;99.90;;;;;;6269579;22;20012;-73
2021/03/14 11:53:54;;;;;;;25.27;11.38;;;6.60;99.90;;;;;;6269501;22;20014;-72
2021/03/14 11:56:20;;;;;;;18.50;8.32;;;6.60;99.90;;;;;;6270573;22;20451;-73
2021/03/14 11:58:45;;;;;;;27.27;12.25;;;6.70;99.90;;;;;;6266289;22;20057;-73
2021/03/14 12:01:11;;;;;;;26.13;10.07;;;6.60;99.90;;;;;;6268941;22;20004;-71
2021/03/14 12:03:41;;;;;;;21.88;9.05;;;6.70;99.90;;;;;;6269733;22;20046;-70
2021/03/14 12:06:07;;;;;;;28.90;11.20;;;6.70;99.90;;;;;;6268544;22;20000;-73
2021/03/14 12:08:33;;;;;;;26.27;9.55;;;6.60;99.90;;;;;;6268873;22;20443;-73
2021/03/14 12:11:02;;;;;;;23.70;10.68;;;6.80;99.90;;;;;;6240281;22;20007;-72
2021/03/14 12:13:27;;;;;;;26.80;12.48;;;7.00;99.90;;;;;;6242054;22;20004;-70
2021/03/14 12:15:53;;;;;;;23.48;11.43;;;7.40;99.90;;;;;;6268120;22;20011;-70
2021/03/14 12:18:18;;;;;;;17.90;8.40;;;7.40;99.90;;;;;;6270370;22;20015;-70
2021/03/14 12:20:46;;;;;;;24.42;10.85;;;7.30;99.90;;;;;;6269003;22;20490;-70
2021/03/14 12:23:12;;;;;;;31.23;11.40;;;7.40;99.90;;;;;;6270468;22;20017;-70
2021/03/14 12:25:38;;;;;;;25.60;10.73;;;7.40;99.90;;;;;;6267790;22;20082;-70
2021/03/14 12:28:04;;;;;;;24.60;10.23;;;7.70;99.90;;;;;;6266475;22;20035;-71
2021/03/14 12:30:30;;;;;;;29.20;11.85;;;8.00;99.90;;;;;;6267193;22;20509;-70
2021/03/14 12:32:55;;;;;;;18.95;8.93;;;8.60;99.90;;;;;;6267539;22;20007;-70
2021/03/14 12:35:22;;;;;;;21.58;9.65;;;8.90;99.90;;;;;;6266862;22;20004;-70
2021/03/14 12:37:48;;;;;;;23.98;10.45;;;8.90;99.90;;;;;;6267262;22;20449;-70
2021/03/14 12:40:14;;;;;;;25.92;9.52;;;8.70;99.90;;;;;;6266804;22;20000;-70
2021/03/14 12:42:40;;;;;;;23.75;11.50;;;8.90;99.90;;;;;;6268190;22;20105;-70
2021/03/14 12:45:06;;;;;;;22.90;10.82;;;8.80;99.90;;;;;;6263635;22;20035;-70
2021/03/14 12:47:32;;;;;;;20.60;8.95;;;8.90;99.90;;;;;;6266706;22;20008;-71
2021/03/14 12:50:00;;;;;;;21.08;9.98;;;8.80;99.90;;;;;;6266430;22;20313;-71
2021/03/14 12:52:29;;;;;;;22.88;10.05;;;8.30;99.90;;;;;;6267903;22;20015;-73
2021/03/14 12:54:55;;;;;;;18.45;9.90;;;8.20;99.90;;;;;;6268034;22;20003;-73
2021/03/14 12:57:20;;;;;;;26.15;8.88;;;8.20;99.90;;;;;;6268734;22;20025;-72